| time (UTC) | temp F | wind direction | speed knots | gust knots | rain 1hr in | rain 24hr in | rain mn in | humidity % | barometer mb |
| 20260906232525 | 69 | 278 | 1.7 | 7.8 | 0.00 | 0.00 | 0.00 | ||
| 20260906224515 | 71 | 250 | 3.5 | 7.8 | 0.00 | 0.00 | 0.00 | ||
| 20260906220506 | 73 | 176 | 2.6 | 5.2 | 0.00 | 0.00 | 0.00 | ||
| 20260906215144 | 73 | 250 | 0.9 | 5.2 | 0.00 | 0.00 | 0.00 | ||
| 20260906213821 | 73 | 318 | 3.5 | 7.8 | 0.00 | 0.00 | 0.00 | ||
| 20260906212457 | 74 | 233 | 2.6 | 7.0 | 0.00 | 0.00 | 0.00 | ||
| 20260906211134 | 72 | 246 | 6.1 | 12.2 | 0.00 | 0.00 | 0.00 | ||
| 20260906203125 | 75 | 207 | 4.3 | 10.4 | 0.00 | 0.00 | 0.00 | ||
| 20260906201802 | 75 | 242 | 3.5 | 8.7 | 0.00 | 0.00 | 0.00 | ||
| 20260906200440 | 74 | 336 | 1.7 | 7.8 | 0.00 | 0.00 | 0.00 | ||
| 20260906195115 | 72 | 211 | 5.2 | 9.6 | 0.00 | 0.00 | 0.00 | ||
| 20260906183055 | 74 | 226 | 2.6 | 7.0 | 0.00 | 0.00 | 0.00 | ||
| 20260906180406 | 75 | 228 | 2.6 | 7.8 | 0.00 | 0.00 | 0.00 | ||
| 20260906175043 | 75 | 214 | 1.7 | 9.6 | 0.00 | 0.00 | 0.00 | ||
| 20260906173721 | 73 | 243 | 2.6 | 7.0 | 0.00 | 0.00 | 0.00 | ||
| 20260906164350 | 74 | 177 | 1.7 | 7.0 | 0.00 | 0.00 | 0.00 | ||
| 20260906163027 | 72 | 243 | 2.6 | 7.8 | 0.00 | 0.00 | 0.00 | ||
| 20260906160339 | 70 | 221 | 1.7 | 6.1 | 0.00 | 0.00 | 0.00 | ||
| 20260906152325 | 68 | 98 | 0.9 | 4.3 | 0.00 | 0.00 | 0.00 | ||
| 20260906151001 | 62 | 274 | 1.7 | 0.9 | 0.00 | 0.00 | 0.00 | ||
| 20260906145638 | 59 | 339 | 0.9 | 1.7 | 0.00 | 0.00 | 0.00 | ||
| 20260906142953 | 56 | 197 | 0.0 | 3.5 | 0.00 | 0.00 | 0.00 | ||
| 20260906141630 | 56 | 68 | 0.0 | 0.9 | 0.00 | 0.00 | 0.00 | ||
| 20260906140307 | 52 | 69 | 2.6 | 3.5 | 0.00 | 0.00 | 0.00 | ||
| 20260906134944 | 55 | 41 | 0.0 | 0.0 | 0.00 | 0.00 | 0.00 | ||
| 20260906132300 | 45 | 46 | 0.0 | 0.0 | 0.00 | 0.00 | 0.00 | ||
| 20260906130936 | 44 | 60 | 0.9 | 0.9 | 0.00 | 0.00 | 0.00 | ||
| 20260906125613 | 45 | 180 | 0.0 | 2.6 | 0.00 | 0.00 | 0.00 | ||
| 20260906124248 | 45 | 31 | 0.0 | 0.9 | 0.00 | 0.00 | 0.00 | ||
| 20260906122925 | 45 | 68 | 1.7 | 2.6 | 0.00 | 0.00 | 0.00 | ||
| 20260906122043 | 44 | 149 | 0.0 | 0.0 | 0.00 | 0.00 | 0.00 | ||
| 20260906121556 | 44 | 149 | 0.0 | 0.0 | 0.00 | 0.00 | 0.00 | ||
| 20260906114911 | 45 | 8 | 0.0 | 0.0 | 0.00 | 0.00 | 0.00 | ||
| 20260906112225 | 48 | 335 | 0.0 | 0.0 | 0.00 | 0.00 | 0.00 | ||
| 20260906110903 | 48 | 238 | 0.0 | 1.7 | 0.00 | 0.00 | 0.00 | ||
| 20260906105540 | 47 | 53 | 0.0 | 0.0 | 0.00 | 0.00 | 0.00 | ||
| 20260906104217 | 47 | 347 | 1.7 | 0.9 | 0.00 | 0.00 | 0.00 | ||
| 20260906102855 | 49 | 271 | 0.0 | 1.7 | 0.00 | 0.00 | 0.00 | ||
| 20260906100902 | 45 | 77 | 2.6 | 3.5 | 0.00 | 0.00 | 0.00 | ||
| 20260906094216 | 46 | 41 | 0.0 | 3.5 | 0.00 | 0.00 | 0.00 | ||
| 20260906092854 | 47 | 30 | 0.9 | 0.9 | 0.00 | 0.00 | 0.00 | ||
| 20260906090209 | 48 | 20 | 0.9 | 2.6 | 0.00 | 0.00 | 0.00 | ||
| 20260906084844 | 47 | 42 | 0.9 | 1.7 | 0.00 | 0.00 | 0.00 | ||
| 20260906082157 | 48 | 82 | 0.9 | 1.7 | 0.00 | 0.00 | 0.00 | ||
| 20260906080835 | 48 | 83 | 0.9 | 1.7 | 0.00 | 0.00 | 0.00 | ||
| 20260906074149 | 48 | 31 | 0.9 | 2.6 | 0.00 | 0.00 | 0.00 | ||
| 20260906072826 | 48 | 76 | 0.0 | 0.0 | 0.00 | 0.00 | 0.00 | ||
| 20260906070136 | 49 | 32 | 0.0 | 0.0 | 0.00 | 0.00 | 0.00 | ||
| 20260906064813 | 49 | 27 | 0.9 | 0.9 | 0.00 | 0.00 | 0.00 | ||
| 20260906055441 | 52 | 262 | 0.0 | 0.9 | 0.00 | 0.00 | 0.00 | ||
| 20260906054117 | 52 | 343 | 1.7 | 0.9 | 0.00 | 0.00 | 0.00 | ||
| 20260906052755 | 53 | 96 | 0.0 | 1.7 | 0.00 | 0.00 | 0.00 | ||
| 20260906051432 | 51 | 6 | 0.0 | 0.0 | 0.00 | 0.00 | 0.00 | ||
| 20260906050107 | 51 | 6 | 0.0 | 0.0 | 0.00 | 0.00 | 0.00 | ||
| 20260906043421 | 51 | 49 | 1.7 | 0.0 | 0.00 | 0.00 | 0.00 | ||
| 20260906042058 | 53 | 353 | 0.0 | 0.0 | 0.00 | 0.00 | 0.00 | ||
| 20260906040733 | 54 | 353 | 0.0 | 0.0 | 0.00 | 0.00 | 0.00 | ||
| 20260906035411 | 54 | 24 | 0.0 | 1.7 | 0.00 | 0.00 | 0.00 | ||
| 20260906034045 | 54 | 86 | 0.0 | 0.0 | 0.00 | 0.00 | 0.00 | ||
| 20260906031359 | 56 | 1 | 0.0 | 0.0 | 0.00 | 0.00 | 0.00 | ||
| 20260906030037 | 56 | 1 | 0.0 | 0.0 | 0.00 | 0.00 | 0.00 | ||
| 20260906024713 | 59 | 1 | 0.0 | 0.9 | 0.00 | 0.00 | 0.00 | ||
| 20260906023349 | 61 | 44 | 0.0 | 1.7 | 0.00 | 0.00 | 0.00 | ||
| 20260906022027 | 61 | 15 | 0.0 | 0.0 | 0.00 | 0.00 | 0.00 | ||
| 20260906015336 | 65 | 15 | 0.0 | 0.0 | 0.00 | 0.00 | 0.00 | ||
| 20260906011324 | 71 | 215 | 0.9 | 3.5 | 0.00 | 0.00 | 0.00 | ||
| 20260906004637 | 73 | 232 | 3.5 | 7.8 | 0.00 | 0.00 | 0.00 | ||
| 20260906003315 | 73 | 224 | 1.7 | 5.2 | 0.00 | 0.00 | 0.00 | ||
| 20260906001952 | 74 | 274 | 3.5 | 2.6 | 0.00 | 0.00 | 0.00 | ||
| 20260905235306 | 75 | 248 | 6.1 | 11.3 | 0.00 | 0.00 | 0.00 |